createdAt,value
2023-01-26T00:01:24.468Z,79.71
2023-01-26T00:03:52.617Z,78.40
2023-01-26T00:06:21.573Z,79.29
2023-01-26T00:08:51.374Z,79.44
2023-01-26T00:11:21.550Z,79.47
2023-01-26T00:13:50.333Z,79.30
2023-01-26T00:16:17.996Z,79.43
2023-01-26T00:18:46.180Z,79.42
2023-01-26T00:21:18.991Z,79.24
2023-01-26T00:23:48.678Z,78.03
2023-01-26T00:26:19.735Z,79.18
2023-01-26T00:28:47.818Z,78.48
2023-01-26T00:31:18.392Z,78.85
2023-01-26T00:33:46.125Z,79.61
2023-01-26T00:36:14.809Z,79.45
2023-01-26T00:38:42.888Z,78.88
2023-01-26T00:41:10.906Z,79.85
2023-01-26T00:43:38.915Z,79.34
2023-01-26T00:46:07.012Z,79.08
2023-01-26T00:48:36.760Z,79.08
2023-01-26T00:51:05.242Z,79.15
2023-01-26T00:53:32.942Z,79.13
2023-01-26T00:56:00.576Z,79.60
2023-01-26T00:58:28.576Z,78.83
2023-01-26T01:00:57.441Z,79.06
2023-01-26T01:03:25.137Z,79.05
2023-01-26T01:05:53.224Z,79.14
2023-01-26T01:08:20.775Z,78.76
2023-01-26T01:10:48.422Z,78.73
2023-01-26T01:13:16.491Z,78.97
2023-01-26T01:15:44.108Z,78.85
2023-01-26T01:18:11.906Z,78.77
2023-01-26T01:20:40.999Z,78.83
2023-01-26T01:23:08.601Z,79.10
2023-01-26T01:25:36.252Z,79.27
2023-01-26T01:28:04.766Z,78.83
2023-01-26T01:30:33.915Z,79.31
2023-01-26T01:33:01.690Z,78.56
2023-01-26T01:35:29.680Z,78.52
2023-01-26T01:37:57.711Z,78.97
2023-01-26T01:40:25.818Z,78.61
2023-01-26T01:42:53.861Z,79.43
2023-01-26T01:45:27.751Z,79.36
2023-01-26T01:47:57.754Z,79.94
2023-01-26T01:50:27.308Z,80.42
2023-01-26T01:52:56.306Z,80.50
2023-01-26T01:55:24.435Z,80.51
2023-01-26T01:57:56.101Z,80.05
2023-01-26T02:00:26.490Z,79.68
2023-01-26T02:03:20.726Z,79.28
2023-01-26T02:05:58.043Z,79.41
2023-01-26T02:08:39.457Z,79.19
2023-01-26T02:11:11.205Z,78.66
2023-01-26T02:13:39.626Z,78.94
2023-01-26T02:16:07.668Z,78.22
2023-01-26T02:18:35.314Z,78.18
2023-01-26T02:21:06.026Z,78.11
2023-01-26T02:23:58.741Z,78.30
2023-01-26T02:26:29.031Z,78.26
2023-01-26T02:28:57.105Z,78.51
2023-01-26T02:31:25.361Z,78.83
2023-01-26T02:33:54.007Z,78.47
2023-01-26T02:36:25.223Z,79.43
2023-01-26T02:39:14.455Z,78.71
2023-01-26T02:41:45.850Z,78.05
2023-01-26T02:44:14.017Z,78.36
2023-01-26T02:46:42.662Z,78.51
2023-01-26T02:49:10.497Z,77.97
2023-01-26T02:51:38.257Z,77.72
2023-01-26T02:54:06.209Z,78.09
2023-01-26T02:56:33.796Z,77.45
2023-01-26T02:59:01.528Z,77.77
2023-01-26T03:01:32.270Z,77.97
2023-01-26T03:04:00.084Z,76.36
2023-01-26T03:06:27.625Z,76.41
2023-01-26T03:08:57.797Z,76.79
2023-01-26T03:11:25.414Z,76.77
2023-01-26T03:13:53.966Z,77.32
2023-01-26T03:16:21.886Z,77.04
2023-01-26T03:18:49.530Z,75.32
2023-01-26T03:21:18.646Z,75.48
2023-01-26T03:23:47.768Z,76.08
2023-01-26T03:26:15.753Z,75.31
2023-01-26T03:28:44.180Z,75.44
2023-01-26T03:31:12.165Z,74.79
2023-01-26T03:33:39.782Z,74.06
2023-01-26T03:36:07.765Z,74.90
2023-01-26T03:38:35.805Z,75.29
2023-01-26T03:41:03.893Z,75.38
2023-01-26T03:43:31.530Z,75.74
2023-01-26T03:46:03.092Z,75.52
2023-01-26T03:48:31.230Z,75.79
2023-01-26T03:50:59.630Z,76.25
2023-01-26T03:53:27.285Z,76.42
2023-01-26T03:55:54.968Z,76.66
2023-01-26T03:58:22.912Z,76.86
2023-01-26T04:00:51.091Z,76.59
2023-01-26T04:03:19.132Z,76.55
2023-01-26T04:05:46.895Z,76.78
2023-01-26T04:08:14.920Z,76.22
2023-01-26T04:10:43.951Z,76.36
2023-01-26T04:13:12.097Z,76.09
2023-01-26T04:15:40.287Z,76.50
2023-01-26T04:18:08.490Z,76.26
2023-01-26T04:20:36.425Z,76.54
2023-01-26T04:23:04.245Z,76.75
2023-01-26T04:25:32.147Z,77.15
2023-01-26T04:28:00.029Z,77.24
2023-01-26T04:30:27.887Z,77.23
2023-01-26T04:32:55.940Z,77.05
2023-01-26T04:35:23.757Z,77.36
2023-01-26T04:37:51.499Z,77.22
2023-01-26T04:40:20.084Z,76.78
2023-01-26T04:42:48.979Z,77.27
2023-01-26T04:45:16.927Z,76.92
2023-01-26T04:47:45.160Z,77.04
2023-01-26T04:50:13.744Z,76.93
2023-01-26T04:52:41.723Z,76.97
2023-01-26T04:55:09.875Z,76.91
2023-01-26T04:57:39.036Z,77.06
2023-01-26T05:00:08.617Z,77.06
2023-01-26T05:02:39.994Z,76.67
2023-01-26T05:05:09.256Z,76.56
2023-01-26T05:07:37.529Z,76.63
2023-01-26T05:10:05.928Z,76.87
2023-01-26T05:12:34.099Z,77.01
2023-01-26T05:15:03.104Z,76.71
2023-01-26T05:17:31.000Z,76.49
2023-01-26T05:20:00.731Z,76.74
2023-01-26T05:22:30.762Z,77.04
2023-01-26T05:25:00.604Z,77.34
2023-01-26T05:27:31.350Z,76.97
2023-01-26T05:29:59.321Z,76.56
2023-01-26T05:32:31.076Z,76.43
2023-01-26T05:34:59.173Z,76.42
2023-01-26T05:37:27.902Z,76.64
2023-01-26T05:39:56.415Z,76.90
2023-01-26T05:42:24.856Z,76.67
2023-01-26T05:44:53.548Z,76.76
2023-01-26T05:47:22.468Z,76.50
2023-01-26T05:49:50.591Z,76.59
2023-01-26T05:52:20.368Z,76.22
2023-01-26T05:54:48.277Z,76.17
2023-01-26T05:57:16.607Z,75.94
2023-01-26T05:59:44.880Z,75.68
2023-01-26T06:02:12.952Z,75.63
2023-01-26T06:04:42.243Z,74.96
2023-01-26T06:07:10.097Z,74.58
2023-01-26T06:09:37.939Z,74.68
2023-01-26T06:12:07.356Z,76.15
2023-01-26T06:14:35.445Z,75.41
2023-01-26T06:17:03.428Z,75.74
2023-01-26T06:19:34.499Z,75.18
2023-01-26T06:22:02.429Z,76.17
2023-01-26T06:24:30.569Z,76.53
2023-01-26T06:26:59.925Z,76.67
2023-01-26T06:29:27.852Z,75.84
2023-01-26T06:31:55.637Z,76.44
2023-01-26T06:34:23.763Z,76.26
2023-01-26T06:36:51.475Z,76.11
2023-01-26T06:39:19.585Z,76.17
2023-01-26T06:41:48.269Z,76.12
2023-01-26T06:44:16.071Z,76.39
2023-01-26T06:46:43.792Z,75.94
2023-01-26T06:49:11.862Z,76.09
2023-01-26T06:51:45.142Z,75.04
2023-01-26T06:54:13.935Z,75.74
2023-01-26T06:56:42.095Z,75.67
2023-01-26T06:59:10.710Z,75.81
2023-01-26T07:01:43.595Z,75.90
2023-01-26T07:04:11.366Z,75.86
2023-01-26T07:06:39.096Z,75.72
2023-01-26T07:09:07.077Z,75.44
2023-01-26T07:11:34.784Z,75.03
2023-01-26T07:14:02.510Z,75.33
2023-01-26T07:16:32.675Z,76.15
2023-01-26T07:19:01.347Z,75.54
2023-01-26T07:21:29.132Z,77.26
2023-01-26T07:23:57.269Z,75.82
2023-01-26T07:26:24.902Z,75.88
2023-01-26T07:28:52.724Z,74.58
2023-01-26T07:31:20.842Z,75.42
2023-01-26T07:33:48.556Z,74.17
2023-01-26T07:36:16.287Z,75.29
2023-01-26T07:38:44.250Z,75.13
2023-01-26T07:41:13.073Z,74.23
2023-01-26T07:43:40.851Z,74.70
2023-01-26T07:46:09.631Z,75.40
2023-01-26T07:48:37.246Z,75.14
2023-01-26T07:51:05.511Z,75.79
2023-01-26T07:53:33.430Z,75.85
2023-01-26T07:56:08.107Z,76.05
2023-01-26T07:58:36.112Z,75.31
2023-01-26T08:01:08.231Z,75.46
2023-01-26T08:03:36.523Z,75.62
2023-01-26T08:06:05.025Z,75.96
2023-01-26T08:08:33.188Z,76.43
2023-01-26T08:11:02.196Z,76.48
2023-01-26T08:13:35.857Z,76.16
2023-01-26T08:16:06.751Z,75.33
2023-01-26T08:18:34.472Z,76.17
2023-01-26T08:21:02.260Z,75.96
2023-01-26T08:23:30.849Z,75.86
2023-01-26T08:26:17.213Z,76.18
2023-01-26T08:28:45.818Z,75.70
2023-01-26T08:31:17.048Z,75.65
2023-01-26T08:33:47.025Z,76.23
2023-01-26T08:36:15.626Z,75.25
2023-01-26T08:38:43.604Z,76.27
2023-01-26T08:41:12.177Z,76.80
2023-01-26T08:43:40.457Z,77.27
2023-01-26T08:46:08.209Z,77.15
2023-01-26T08:48:36.602Z,77.11
2023-01-26T08:51:05.671Z,76.27
2023-01-26T08:53:34.849Z,76.98
2023-01-26T08:56:07.596Z,78.12
2023-01-26T08:58:35.899Z,76.93
2023-01-26T09:01:08.371Z,77.34
2023-01-26T09:03:36.119Z,76.87
2023-01-26T09:06:05.384Z,76.23
2023-01-26T09:08:33.300Z,75.97
2023-01-26T09:11:00.955Z,76.85
2023-01-26T09:13:29.013Z,77.40
2023-01-26T09:15:57.437Z,77.84
2023-01-26T09:18:25.121Z,76.54
2023-01-26T09:20:53.243Z,76.19
2023-01-26T09:23:20.890Z,76.05
2023-01-26T09:25:53.230Z,76.93
2023-01-26T09:28:21.439Z,77.35
2023-01-26T09:30:49.239Z,78.00
2023-01-26T09:33:17.186Z,76.99
2023-01-26T09:35:45.124Z,77.67
2023-01-26T09:38:13.334Z,77.38
2023-01-26T09:40:59.790Z,77.39
2023-01-26T09:43:40.376Z,76.96
2023-01-26T09:46:20.175Z,77.03
2023-01-26T09:49:07.278Z,75.95
2023-01-26T09:51:37.877Z,76.01
2023-01-26T09:54:19.766Z,76.39
2023-01-26T09:56:47.405Z,76.94
2023-01-26T09:59:21.504Z,77.43
2023-01-26T10:02:01.655Z,77.22
2023-01-26T10:04:34.948Z,77.64
2023-01-26T10:07:06.039Z,77.80
2023-01-26T10:09:46.377Z,76.87
2023-01-26T10:12:19.512Z,76.84
2023-01-26T10:14:59.461Z,76.94
2023-01-26T10:17:53.250Z,76.51
2023-01-26T10:20:36.422Z,76.74
2023-01-26T10:23:10.180Z,77.81
2023-01-26T10:25:40.521Z,77.26
2023-01-26T10:28:24.007Z,76.39
2023-01-26T10:30:52.231Z,77.16
2023-01-26T10:33:28.204Z,76.24
2023-01-26T10:35:56.381Z,77.27
2023-01-26T10:38:34.036Z,76.74
2023-01-26T10:41:26.095Z,76.90
2023-01-26T10:43:59.071Z,76.38
2023-01-26T10:46:35.243Z,75.61
2023-01-26T10:49:14.865Z,75.14
2023-01-26T10:51:45.045Z,76.17
2023-01-26T10:54:28.271Z,76.95
2023-01-26T10:57:02.079Z,77.08
2023-01-26T10:59:59.389Z,76.85
2023-01-26T11:02:31.314Z,75.91
2023-01-26T11:05:08.205Z,77.05
2023-01-26T11:07:39.305Z,76.51
2023-01-26T11:10:33.500Z,76.04
2023-01-26T11:13:14.973Z,75.59
2023-01-26T11:15:45.271Z,75.70
2023-01-26T11:18:24.797Z,76.35
2023-01-26T11:20:58.716Z,76.60
2023-01-26T11:23:41.366Z,78.13
2023-01-26T11:26:37.134Z,79.78
2023-01-26T11:29:30.247Z,80.27
2023-01-26T11:32:03.937Z,77.39
2023-01-26T11:34:57.619Z,77.85
2023-01-26T11:37:27.884Z,79.13
2023-01-26T11:40:04.094Z,78.93
2023-01-26T11:42:41.928Z,79.86
2023-01-26T11:45:30.180Z,78.84
2023-01-26T11:48:13.224Z,78.45
2023-01-26T11:50:44.043Z,78.58
2023-01-26T11:53:49.371Z,78.23
2023-01-26T11:56:37.325Z,77.76
2023-01-26T11:59:18.439Z,77.65
2023-01-26T12:02:35.812Z,76.98
2023-01-26T12:05:17.779Z,77.33
2023-01-26T12:08:03.293Z,76.31
2023-01-26T12:10:45.625Z,76.15
2023-01-26T12:13:20.803Z,75.14
2023-01-26T12:15:55.229Z,74.24
2023-01-26T12:18:42.171Z,75.54
2023-01-26T12:21:18.697Z,75.55
2023-01-26T12:24:01.748Z,76.40
2023-01-26T12:26:33.925Z,75.90
2023-01-26T12:29:09.295Z,75.65
2023-01-26T12:31:46.053Z,74.96
2023-01-26T12:34:14.190Z,76.21
2023-01-26T12:36:57.241Z,75.19
2023-01-26T12:39:44.792Z,74.49
2023-01-26T12:42:35.236Z,75.42
2023-01-26T12:45:07.817Z,74.76
2023-01-26T12:47:42.900Z,74.71
2023-01-26T12:50:40.670Z,75.73
2023-01-26T12:53:16.539Z,76.15
2023-01-26T12:55:46.992Z,76.12
2023-01-26T12:58:21.150Z,75.04
2023-01-26T13:00:53.950Z,75.88
2023-01-26T13:03:25.949Z,75.47
2023-01-26T13:06:01.143Z,75.37
2023-01-26T13:08:32.451Z,75.79
2023-01-26T13:11:01.209Z,76.12
2023-01-26T13:13:32.382Z,76.48
2023-01-26T13:16:15.560Z,77.40
2023-01-26T13:18:54.952Z,76.61
2023-01-26T13:21:37.804Z,76.94
2023-01-26T13:24:18.032Z,76.69
2023-01-26T13:26:50.137Z,76.29
2023-01-26T13:29:34.033Z,76.46
2023-01-26T13:32:01.536Z,76.12
2023-01-26T13:34:34.715Z,76.55
2023-01-26T13:37:12.134Z,75.77
2023-01-26T13:39:44.397Z,75.96
2023-01-26T13:42:23.604Z,76.17
2023-01-26T13:44:58.017Z,76.25
2023-01-26T13:47:30.134Z,76.69
2023-01-26T13:49:58.338Z,76.27
2023-01-26T13:52:27.563Z,76.50
2023-01-26T13:54:56.363Z,76.00
2023-01-26T13:57:29.651Z,74.84
2023-01-26T14:00:01.099Z,75.58
2023-01-26T14:02:34.597Z,75.86
2023-01-26T14:05:03.206Z,75.63
2023-01-26T14:07:41.311Z,74.46
2023-01-26T14:10:20.795Z,74.78
2023-01-26T14:12:51.107Z,74.86
2023-01-26T14:15:28.541Z,74.09
2023-01-26T14:18:04.255Z,72.68
2023-01-26T14:20:35.208Z,72.84
2023-01-26T14:23:03.810Z,72.26
2023-01-26T14:25:31.707Z,72.14
2023-01-26T14:27:59.997Z,71.92
2023-01-26T14:30:33.308Z,71.66
2023-01-26T14:33:14.283Z,69.48
2023-01-26T14:35:43.273Z,70.07
2023-01-26T14:38:11.133Z,69.39
2023-01-26T14:40:46.105Z,69.60
2023-01-26T14:43:14.986Z,70.45
2023-01-26T14:45:48.220Z,70.78
2023-01-26T14:48:20.390Z,69.51
2023-01-26T14:50:48.476Z,70.37
2023-01-26T14:53:22.744Z,69.66
2023-01-26T14:55:51.184Z,69.21
2023-01-26T14:58:31.230Z,69.80
2023-01-26T15:01:00.594Z,69.18
2023-01-26T15:03:33.254Z,70.14
2023-01-26T15:06:13.178Z,69.74
2023-01-26T15:08:42.408Z,68.99
2023-01-26T15:11:10.689Z,69.56
2023-01-26T15:13:41.096Z,67.69
2023-01-26T15:16:15.471Z,67.72
2023-01-26T15:18:43.267Z,67.29
2023-01-26T15:21:18.890Z,67.02
2023-01-26T15:23:50.358Z,68.35
2023-01-26T15:26:32.800Z,66.64
2023-01-26T15:29:03.519Z,67.26
2023-01-26T15:31:37.615Z,67.33
2023-01-26T15:34:06.444Z,67.99
2023-01-26T15:36:43.264Z,68.31
2023-01-26T15:39:14.381Z,68.76
2023-01-26T15:41:46.267Z,68.71
2023-01-26T15:44:17.040Z,67.72
2023-01-26T15:46:45.192Z,68.54
2023-01-26T15:49:13.772Z,70.00
2023-01-26T15:51:41.612Z,69.56
2023-01-26T15:54:11.326Z,68.99
2023-01-26T15:56:38.996Z,68.86
2023-01-26T15:59:07.046Z,68.77
2023-01-26T16:01:34.926Z,69.62
2023-01-26T16:04:02.989Z,70.79
2023-01-26T16:06:32.902Z,70.14
2023-01-26T16:09:00.572Z,69.33
2023-01-26T16:11:30.460Z,69.82
2023-01-26T16:14:03.641Z,68.54
2023-01-26T16:16:32.686Z,68.15
2023-01-26T16:19:00.504Z,69.44
2023-01-26T16:21:31.066Z,70.72
2023-01-26T16:23:59.939Z,71.56
2023-01-26T16:26:30.991Z,70.89
2023-01-26T16:28:58.978Z,71.17
2023-01-26T16:31:29.780Z,70.75
2023-01-26T16:33:58.409Z,70.31
2023-01-26T16:36:28.259Z,70.46
2023-01-26T16:38:58.892Z,69.23
2023-01-26T16:41:32.481Z,69.40
2023-01-26T16:44:05.670Z,69.40
2023-01-26T16:47:04.538Z,69.37
2023-01-26T16:49:32.260Z,69.33
2023-01-26T16:52:00.349Z,69.34
2023-01-26T16:54:28.128Z,69.94
2023-01-26T16:56:55.810Z,69.93
2023-01-26T16:59:24.089Z,69.20
2023-01-26T17:01:52.050Z,69.45
2023-01-26T17:04:19.812Z,69.65
2023-01-26T17:06:47.820Z,69.79
2023-01-26T17:09:15.739Z,69.56
2023-01-26T17:11:43.798Z,70.34
2023-01-26T17:14:15.963Z,69.96
2023-01-26T17:16:45.426Z,69.68
2023-01-26T17:19:21.420Z,71.35
2023-01-26T17:21:54.875Z,70.90
2023-01-26T17:24:41.525Z,70.75
2023-01-26T17:27:20.365Z,70.80
2023-01-26T17:30:55.795Z,71.45
2023-01-26T17:33:34.969Z,71.77
2023-01-26T17:39:27.059Z,71.99
2023-01-26T17:42:18.514Z,72.32
2023-01-26T17:45:04.882Z,73.21
2023-01-26T17:48:33.581Z,73.00
2023-01-26T17:51:11.432Z,72.30
2023-01-26T17:53:47.511Z,71.52
2023-01-26T17:56:35.542Z,71.40
2023-01-26T17:59:13.795Z,71.05
2023-01-26T18:02:07.303Z,71.13
2023-01-26T18:04:45.310Z,71.55
2023-01-26T18:07:13.043Z,70.66
2023-01-26T18:09:40.944Z,71.25
2023-01-26T18:12:08.646Z,70.83
2023-01-26T18:14:36.587Z,71.00
2023-01-26T18:17:05.219Z,71.04
2023-01-26T18:19:35.624Z,70.46
2023-01-26T18:22:03.312Z,70.17
2023-01-26T18:24:31.368Z,69.91
2023-01-26T18:26:59.220Z,70.25
2023-01-26T18:29:27.188Z,70.06
2023-01-26T18:31:55.657Z,69.68
2023-01-26T18:34:26.438Z,70.52
2023-01-26T18:36:54.170Z,70.70
2023-01-26T18:39:22.440Z,70.54
2023-01-26T18:41:50.004Z,70.08
2023-01-26T18:44:18.013Z,70.27
2023-01-26T18:46:46.067Z,69.97
2023-01-26T18:49:14.415Z,70.62
2023-01-26T18:51:42.634Z,70.31
2023-01-26T18:54:12.112Z,68.90
2023-01-26T18:56:40.103Z,69.49
2023-01-26T18:59:08.114Z,70.06
2023-01-26T19:01:37.196Z,69.58
2023-01-26T19:04:06.165Z,69.92
2023-01-26T19:06:34.549Z,70.01
2023-01-26T19:09:04.978Z,70.29
2023-01-26T19:11:34.878Z,70.31
2023-01-26T19:14:05.924Z,69.83
2023-01-26T19:16:34.328Z,70.01
2023-01-26T19:19:03.564Z,69.97
2023-01-26T19:21:33.841Z,70.19
2023-01-26T19:24:02.732Z,70.00
2023-01-26T19:26:31.340Z,69.79
2023-01-26T19:28:59.481Z,69.74
2023-01-26T19:31:29.602Z,69.75
2023-01-26T19:34:04.207Z,70.19
2023-01-26T19:36:42.199Z,69.52
2023-01-26T19:39:10.066Z,69.70
2023-01-26T19:41:38.708Z,69.32
2023-01-26T19:44:08.513Z,69.93
2023-01-26T19:46:36.375Z,69.91
2023-01-26T19:49:05.114Z,69.61
2023-01-26T19:51:33.506Z,68.83
2023-01-26T19:54:01.427Z,68.66
2023-01-26T19:56:31.777Z,68.63
2023-01-26T19:59:01.456Z,69.39
2023-01-26T20:01:30.614Z,69.08
2023-01-26T20:04:01.695Z,69.12
2023-01-26T20:06:32.720Z,69.71
2023-01-26T20:09:01.685Z,68.69
2023-01-26T20:11:32.212Z,68.73
2023-01-26T20:14:06.237Z,68.93
2023-01-26T20:16:34.379Z,68.57
2023-01-26T20:19:03.632Z,68.94
2023-01-26T20:21:32.158Z,68.55
2023-01-26T20:24:05.201Z,68.29
2023-01-26T20:26:34.855Z,69.89
2023-01-26T20:29:03.071Z,70.83
2023-01-26T20:31:30.886Z,71.18
2023-01-26T20:33:59.058Z,71.41
2023-01-26T20:36:27.900Z,70.90
2023-01-26T20:38:58.221Z,70.88
2023-01-26T20:41:28.941Z,70.10
2023-01-26T20:44:01.223Z,70.37
2023-01-26T20:46:33.203Z,69.96
2023-01-26T20:49:01.290Z,69.67
2023-01-26T20:51:32.249Z,69.22
2023-01-26T20:54:00.033Z,69.69
2023-01-26T20:56:29.422Z,69.81
2023-01-26T20:58:57.562Z,70.24
2023-01-26T21:01:25.735Z,70.95
2023-01-26T21:03:54.319Z,71.47
2023-01-26T21:06:23.248Z,71.13
2023-01-26T21:08:57.412Z,71.08
2023-01-26T21:11:29.057Z,71.32
2023-01-26T21:13:58.071Z,71.35
2023-01-26T21:16:26.155Z,69.82
2023-01-26T21:18:54.362Z,71.79
2023-01-26T21:21:22.828Z,71.08
2023-01-26T21:23:51.258Z,71.61
2023-01-26T21:26:22.356Z,71.61
2023-01-26T21:28:52.418Z,72.14
2023-01-26T21:31:21.449Z,72.83
2023-01-26T21:33:50.463Z,72.26
2023-01-26T21:36:24.140Z,71.99
2023-01-26T21:38:53.319Z,72.37
2023-01-26T21:41:32.195Z,72.77
2023-01-26T21:44:05.514Z,72.11
2023-01-26T21:46:33.884Z,73.13
2023-01-26T21:49:02.052Z,73.27
2023-01-26T21:51:30.220Z,73.53
2023-01-26T21:53:58.073Z,73.79
2023-01-26T21:56:25.631Z,73.50
2023-01-26T21:58:53.248Z,73.29
2023-01-26T22:01:21.869Z,73.80
2023-01-26T22:03:50.515Z,73.45
2023-01-26T22:06:22.828Z,74.45
2023-01-26T22:08:51.385Z,74.44
2023-01-26T22:11:19.280Z,73.62
2023-01-26T22:13:47.597Z,73.91
2023-01-26T22:16:15.845Z,73.84
2023-01-26T22:18:43.989Z,73.84
2023-01-26T22:21:12.628Z,73.09
2023-01-26T22:23:41.080Z,73.58
2023-01-26T22:26:14.412Z,73.67
2023-01-26T22:28:42.971Z,74.15
2023-01-26T22:31:10.793Z,74.70
2023-01-26T22:33:38.455Z,74.63
2023-01-26T22:36:08.596Z,74.47
2023-01-26T22:38:37.037Z,74.77
2023-01-26T22:41:06.277Z,74.61
2023-01-26T22:43:34.534Z,74.29
2023-01-26T22:46:07.025Z,74.23
2023-01-26T22:48:35.844Z,74.58
2023-01-26T22:51:16.209Z,75.19
2023-01-26T22:53:45.954Z,74.64
2023-01-26T22:56:13.601Z,74.75
2023-01-26T22:58:56.730Z,75.30
2023-01-26T23:01:28.251Z,74.68
2023-01-26T23:03:56.614Z,75.22
2023-01-26T23:06:24.961Z,75.23
2023-01-26T23:08:53.247Z,74.95
2023-01-26T23:11:23.487Z,74.83
2023-01-26T23:13:52.231Z,74.57
2023-01-26T23:16:20.248Z,74.25
2023-01-26T23:18:48.043Z,74.41
2023-01-26T23:21:16.042Z,74.00
2023-01-26T23:23:44.346Z,73.55
2023-01-26T23:26:12.082Z,73.94
2023-01-26T23:28:41.385Z,73.81
2023-01-26T23:31:10.578Z,74.13
2023-01-26T23:33:38.973Z,73.79
2023-01-26T23:36:07.719Z,74.11
2023-01-26T23:38:36.131Z,73.94
2023-01-26T23:41:04.223Z,74.32
2023-01-26T23:43:32.122Z,74.15
2023-01-26T23:46:00.492Z,73.81
2023-01-26T23:48:28.404Z,74.14
2023-01-26T23:50:57.558Z,74.17
2023-01-26T23:53:26.026Z,74.27
2023-01-26T23:55:53.827Z,74.93
2023-01-26T23:58:21.458Z,74.92
